Detall de PIREP

Printer-friendly versionPDF version

[2013/09/12 09:01:00]
Flight IATA:CT3230
Pilot Number:012
Company ICAO:CAT
Aircraft Type:A320/E
PAX:150
Departing Airport: LEPA
Destination Airport: ELLX
Alternate Airport:EDDK
Online: VATSIM
Route:MEROS UN853 UBIMA UN853 IXILU UL47 GIVOR UN853 SORAL V36 AKELU
Flight Level:F360
No Slew and time accel
No pause
Crash detect
Detect pilot in Cockpit between each 30 and 45 minutes
09:01 Zero fuel Weight: 117772 Lbs, Fuel Weight: 19455 Lbs
09:01 VATSIM:LEPA 120830Z 07004KT 010V110 9999 FEW030 23/15 Q1021 NOSIG
09:01 VATSIM:ELLX 120850Z 27008KT 240V310 9999 SCT007 BKN015 11/11 Q1017 NOSIG
09:01 VOICE CATALONIAN
09:02 Parking Brakes off
09:09 Take-off
09:09 Take off Weight: 136249 Lbs
09:09 Wind: 059º @ 004 Knots Heading: 058º
09:09 POS N39º 32´ 59´´ E002º 45´ 00´´
09:09 Gear Up: 171 Knots
09:09 Flaps:3 at 171 Knots
09:10 Flaps:2 at 186 Knots
09:10 Flaps:1 at 199 Knots
09:10 Flaps:0 at 201 Knots
09:24 Wind:271º@050 Knots Heading: 026º Ground Speed: 493 Knots Altitude 32037 ft
09:26 TOC
09:26 Fuel Weight: 14541 Lb
09:39 Wind:311º@037 Knots Heading: 029º Ground Speed: 446 Knots Altitude 36112 ft
09:54 Wind:332º@034 Knots Heading: 026º Ground Speed: 434 Knots Altitude 36079 ft
10:09 Wind:331º@040 Knots Heading: 354º Ground Speed: 415 Knots Altitude 36135 ft
10:24 Wind:344º@044 Knots Heading: 334º Ground Speed: 404 Knots Altitude 36197 ft
10:30 TOD
10:30 Fuel Weight: 8937 Lb
10:39 Wind:356º@028 Knots Heading: 013º Ground Speed: 316 Knots Altitude 18028 ft
10:54 Wind:289º@008 Knots Heading: 037º Ground Speed: 214 Knots Altitude 2916 ft
10:54 Flaps:1 at 192 Knots
10:55 Flaps:3 at 189 Knots
10:56 Gear Down: 180 Knots
10:57 Flaps:4 at 177 Knots
10:57 Flaps:5 at 149 Knots
10:59 TouchDown:Rate -262 ft/min Speed: 128 Knots
11:00 Flaps:4 at 64 Knots
11:00 Flaps:0 at 58 Knots
11:00 VATSIM:ELLX 121050Z 29009KT 260V330 9999 SCT006 BKN010 12/11 Q1018 NOSIG
11:00 Land
11:00 Wind:289º@008 Knots
11:00 Heading: 239º
11:00 Flight Duration: 01:51
11:00 Landing Weight: 124323 Lbs
11:00 POS N49º 37´ 35´´ E006º 12´ 40´´
11:04 Parking brakes on
11:04 Block to Block Duration: 02:02
11:04 Final Fuel: 6161 Lbls
11:04 Spent Fuel: 13293 Lbls
11:04 Flight Length: 704 NM
11:04 TOD Land Length: 134 NM

Exportar CSV

Powered by Drupal - Modified by Danger4k